Time;durP1;ratioP1;P1;durP2;ratioP2;P2;SDS_P1;SDS_P2;PMS_P1;PMS_P2;Temp;Humidity;BMP_temperature;BMP_pressure;BME280_temperature;BME280_humidity;BME280_pressure;Samples;Min_cycle;Max_cycle;Signal;HPM_P1;HPM_P2
2021/08/06 00:00:21;;;;;;;5.47;5.05;;;;;;;18.88;64.85;100280.13;684750;28;1760;-62
2021/08/06 00:00:42;;;;;;;5.43;4.63;;;;;;;18.88;64.77;100282.88;683619;28;44492;-62
2021/08/06 00:01:04;;;;;;;5.50;4.88;;;;;;;18.87;64.77;100276.56;684769;28;906;-62
2021/08/06 00:01:25;;;;;;;5.88;5.38;;;;;;;18.88;64.85;100280.13;684423;28;4540;-62
2021/08/06 00:01:47;;;;;;;5.18;4.72;;;;;;;18.86;64.88;100279.56;684934;28;1138;-63
2021/08/06 00:02:09;;;;;;;5.03;4.63;;;;;;;18.89;64.47;100288.09;684623;28;2223;-62
2021/08/06 00:02:32;;;;;;;5.32;4.93;;;;;;;18.89;64.67;100279.06;683733;28;985;-62
2021/08/06 00:02:53;;;;;;;5.43;4.93;;;;;;;18.90;64.74;100284.28;681501;28;70195;-62
2021/08/06 00:03:14;;;;;;;5.47;4.97;;;;;;;18.89;64.61;100281.81;682758;28;19853;-62
2021/08/06 00:03:35;;;;;;;5.18;4.78;;;;;;;18.89;64.65;100279.06;683498;28;11989;-62
2021/08/06 00:03:59;;;;;;;5.20;4.70;;;;;;;18.89;64.79;100281.81;682587;28;22433;-62
2021/08/06 00:04:21;;;;;;;5.40;4.90;;;;;;;18.89;64.65;100282.63;682959;28;15849;-62
2021/08/06 00:04:43;;;;;;;5.72;4.90;;;;;;;18.89;64.74;100287.28;685046;28;876;-62
2021/08/06 00:05:05;;;;;;;5.35;4.85;;;;;;;18.89;64.77;100281.81;685108;28;930;-62
2021/08/06 00:05:28;;;;;;;5.97;4.73;;;;;;;18.87;64.78;100282.03;681342;28;92275;-63
2021/08/06 00:05:49;;;;;;;5.27;4.80;;;;;;;18.88;64.68;100280.94;683334;28;53746;-62
2021/08/06 00:06:10;;;;;;;5.30;4.80;;;;;;;18.89;64.86;100284.53;683723;28;46371;-63
2021/08/06 00:06:32;;;;;;;6.30;4.90;;;;;;;18.88;64.65;100280.94;684012;28;21454;-63
2021/08/06 00:06:54;;;;;;;5.10;4.70;;;;;;;18.91;64.72;100283.19;684703;28;21584;-63
2021/08/06 00:07:15;;;;;;;5.00;4.70;;;;;;;18.91;64.82;100280.47;683827;28;44444;-63
2021/08/06 00:07:36;;;;;;;5.53;5.03;;;;;;;18.92;64.77;100281.31;684006;28;46287;-63
2021/08/06 00:07:57;;;;;;;5.50;4.77;;;;;;;18.90;64.75;100278.81;684213;28;44404;-63
2021/08/06 00:08:19;;;;;;;5.47;4.90;;;;;;;18.92;65.01;100284.06;684149;28;41615;-63
2021/08/06 00:08:40;;;;;;;5.22;4.82;;;;;;;18.91;64.88;100280.47;683480;28;45244;-63
2021/08/06 00:09:02;;;;;;;5.22;4.82;;;;;;;18.90;64.86;100278.81;685488;28;994;-63
2021/08/06 00:09:23;;;;;;;5.20;4.80;;;;;;;18.89;64.85;100281.81;684431;28;23733;-62
2021/08/06 00:09:45;;;;;;;5.78;5.30;;;;;;;18.89;64.98;100276.31;685432;28;891;-63
2021/08/06 00:10:07;;;;;;;5.55;5.05;;;;;;;18.88;64.93;100275.47;683657;28;46274;-63
2021/08/06 00:10:28;;;;;;;5.25;4.85;;;;;;;18.87;64.89;100276.56;683538;28;44219;-63
2021/08/06 00:10:49;;;;;;;5.18;4.78;;;;;;;18.88;64.98;100277.38;684947;28;3455;-62
2021/08/06 00:11:16;;;;;;;6.05;4.80;;;;;;;18.87;65.05;100271.09;682809;28;61275;-63
2021/08/06 00:11:38;;;;;;;5.00;4.47;;;;;;;18.86;64.94;100283.09;683546;28;49666;-63
2021/08/06 00:12:00;;;;;;;5.22;4.82;;;;;;;18.88;64.99;100282.88;685046;28;1814;-62
2021/08/06 00:12:21;;;;;;;5.38;4.97;;;;;;;18.88;65.06;100271.91;684700;28;15289;-63
2021/08/06 00:12:43;;;;;;;5.40;4.90;;;;;;;18.89;64.84;100276.31;685182;28;3053;-63
2021/08/06 00:13:04;;;;;;;5.93;4.70;;;;;;;18.88;64.88;100274.66;682950;28;64629;-63
2021/08/06 00:13:26;;;;;;;6.40;4.93;;;;;;;18.88;64.88;100280.13;683839;28;33173;-63
2021/08/06 00:13:47;;;;;;;4.93;4.57;;;;;;;18.88;64.75;100278.22;684132;28;23403;-63
2021/08/06 00:14:09;;;;;;;5.13;4.63;;;;;;;18.88;64.83;100278.22;684919;28;13573;-63
2021/08/06 00:14:30;;;;;;;5.70;5.10;;;;;;;18.89;64.89;100281.81;684276;28;41069;-63
2021/08/06 00:14:51;;;;;;;5.35;4.85;;;;;;;18.89;64.91;100273.59;684791;28;23441;-63
2021/08/06 00:15:13;;;;;;;5.25;4.85;;;;;;;18.89;64.79;100270.84;685073;28;18558;-62
2021/08/06 00:15:37;;;;;;;6.22;5.63;;;;;;;18.89;64.93;100277.16;684828;28;14953;-63
2021/08/06 00:15:58;;;;;;;5.53;5.03;;;;;;;18.88;64.84;100270.00;683940;28;46315;-63
2021/08/06 00:16:19;;;;;;;5.45;4.95;;;;;;;18.89;64.88;100276.31;684953;28;19139;-63
2021/08/06 00:16:40;;;;;;;5.50;5.00;;;;;;;18.89;64.97;100268.94;684668;28;21978;-63
2021/08/06 00:17:03;;;;;;;5.60;5.10;;;;;;;18.88;64.87;100275.47;684664;28;22387;-63
2021/08/06 00:17:26;;;;;;;5.57;5.07;;;;;;;18.90;64.82;100275.22;684410;28;13603;-63
2021/08/06 00:17:47;;;;;;;5.60;5.20;;;;;;;18.90;65.04;100267.03;685349;28;1311;-63
2021/08/06 00:18:15;;;;;;;6.03;5.03;;;;;;;18.90;64.77;100277.97;683099;28;61849;-63
2021/08/06 00:18:37;;;;;;;6.20;4.90;;;;;;;18.89;64.88;100266.19;685459;28;1725;-62
2021/08/06 00:18:58;;;;;;;5.25;4.75;;;;;;;18.90;65.04;100272.50;684694;28;24223;-63
2021/08/06 00:19:20;;;;;;;5.57;5.10;;;;;;;18.91;64.94;100271.44;685128;28;21502;-63
2021/08/06 00:19:42;;;;;;;5.40;5.00;;;;;;;18.92;64.99;100275.84;684628;28;24361;-62
2021/08/06 00:20:05;;;;;;;5.57;5.07;;;;;;;18.91;65.15;100276.91;683687;28;46303;-62
2021/08/06 00:20:26;;;;;;;6.43;5.28;;;;;;;18.91;65.17;100280.47;682258;28;92281;-63
2021/08/06 00:20:47;;;;;;;5.50;5.00;;;;;;;18.90;65.29;100272.50;684523;28;23408;-63
2021/08/06 00:21:09;;;;;;;5.50;5.10;;;;;;;18.90;65.20;100276.09;684260;28;23248;-63
2021/08/06 00:21:30;;;;;;;5.40;5.00;;;;;;;18.90;65.28;100275.22;684318;28;23488;-63
2021/08/06 00:21:52;;;;;;;6.45;5.20;;;;;;;18.89;65.37;100273.59;685306;28;12451;-63
2021/08/06 00:22:13;;;;;;;5.13;4.72;;;;;;;18.89;65.28;100279.06;684584;28;23491;-63
2021/08/06 00:22:35;;;;;;;5.50;5.00;;;;;;;18.88;65.36;100282.88;684677;28;22420;-63
2021/08/06 00:22:56;;;;;;;5.22;4.72;;;;;;;18.89;65.23;100279.06;683979;28;46325;-63
2021/08/06 00:23:17;;;;;;;5.03;4.63;;;;;;;18.87;65.04;100279.31;684454;28;22448;-63
2021/08/06 00:23:38;;;;;;;5.18;4.78;;;;;;;18.88;65.16;100278.22;684620;28;17205;-63
2021/08/06 00:24:01;;;;;;;5.72;5.30;;;;;;;18.87;65.27;100272.97;685469;28;922;-63
2021/08/06 00:24:22;;;;;;;5.55;5.10;;;;;;;18.87;65.16;100276.56;683780;28;43983;-63
2021/08/06 00:24:43;;;;;;;5.32;4.88;;;;;;;18.87;65.25;100270.25;684988;28;7690;-63
2021/08/06 00:25:06;;;;;;;5.50;5.00;;;;;;;18.87;65.19;100278.44;683555;28;42118;-63
2021/08/06 00:25:34;;;;;;;5.20;4.80;;;;;;;18.86;65.21;100274.91;682796;28;60540;-63
2021/08/06 00:25:56;;;;;;;5.07;4.63;;;;;;;18.85;65.21;100272.41;684598;28;21301;-63
2021/08/06 00:26:17;;;;;;;5.43;5.03;;;;;;;18.85;65.15;100273.22;683802;28;45382;-63
2021/08/06 00:26:39;;;;;;;5.20;4.80;;;;;;;18.85;65.35;100275.97;682259;28;15508;-63
2021/08/06 00:27:02;;;;;;;5.22;4.82;;;;;;;18.84;65.25;100268.84;682799;28;44437;-62
2021/08/06 00:27:23;;;;;;;4.95;4.65;;;;;;;18.84;65.24;100267.97;681690;28;69411;-63
2021/08/06 00:27:44;;;;;;;5.10;4.70;;;;;;;18.82;65.22;100273.69;683585;28;21545;-63
2021/08/06 00:28:06;;;;;;;5.32;4.82;;;;;;;18.81;65.38;100274.78;683837;28;23424;-63
2021/08/06 00:28:27;;;;;;;5.57;5.07;;;;;;;18.81;65.33;100271.19;681629;28;46305;-63
2021/08/06 00:28:49;;;;;;;5.90;5.40;;;;;;;18.81;65.38;100269.31;681910;28;22129;-63
2021/08/06 00:29:10;;;;;;;5.43;4.93;;;;;;;18.79;65.41;100273.34;681853;28;44405;-63
2021/08/06 00:29:32;;;;;;;5.50;5.03;;;;;;;18.78;65.24;100269.78;684335;28;1623;-63
2021/08/06 00:29:54;;;;;;;5.38;4.97;;;;;;;18.77;65.47;100264.56;683196;28;7646;-63
2021/08/06 00:30:16;;;;;;;5.30;4.85;;;;;;;18.75;65.38;100270.28;682496;28;46429;-63
2021/08/06 00:30:37;;;;;;;5.75;5.25;;;;;;;18.75;65.49;100273.00;683885;28;1588;-63
2021/08/06 00:30:59;;;;;;;5.90;5.30;;;;;;;18.75;65.63;100274.91;683804;28;7651;-63
2021/08/06 00:31:21;;;;;;;6.00;5.40;;;;;;;18.75;65.63;100272.19;680763;28;44782;-63
2021/08/06 00:31:43;;;;;;;6.40;4.88;;;;;;;18.75;65.61;100267.53;680115;29;69594;-63
2021/08/06 00:32:05;;;;;;;5.68;5.18;;;;;;;18.76;65.62;100271.09;678971;29;23486;-63
2021/08/06 00:32:27;;;;;;;5.15;4.75;;;;;;;18.73;65.69;100270.50;673525;29;66059;-63
2021/08/06 00:32:55;;;;;;;5.25;4.75;;;;;;;18.75;65.56;100269.44;671059;29;137603;-62
2021/08/06 00:33:22;;;;;;;5.80;5.30;;;;;;;18.74;65.57;100268.59;672471;29;137704;-63
2021/08/06 00:33:44;;;;;;;5.78;5.00;;;;;;;18.75;65.48;100272.19;677671;29;1002;-63
2021/08/06 00:34:08;;;;;;;5.15;4.65;;;;;;;18.75;65.74;100269.44;674141;29;93859;-63
2021/08/06 00:34:30;;;;;;;5.07;4.68;;;;;;;18.72;65.81;100262.56;677480;29;70977;-63
2021/08/06 00:34:51;;;;;;;5.15;4.75;;;;;;;18.71;65.70;100267.19;679279;29;23397;-63
2021/08/06 00:35:13;;;;;;;5.18;4.78;;;;;;;18.71;65.69;100269.94;679807;29;23309;-63
2021/08/06 00:35:37;;;;;;;5.20;4.78;;;;;;;18.71;65.79;100271.81;679447;29;69430;-63
2021/08/06 00:35:58;;;;;;;5.53;5.03;;;;;;;18.71;65.72;100274.56;677581;29;69443;-62
2021/08/06 00:36:23;;;;;;;5.80;5.20;;;;;;;18.70;65.78;100271.00;678707;28;113867;-63
2021/08/06 00:36:46;;;;;;;5.65;5.13;;;;;;;18.71;65.80;100277.28;679785;28;45069;-63
2021/08/06 00:37:10;;;;;;;5.05;4.72;;;;;;;18.70;65.80;100267.44;678199;29;9182;-63
2021/08/06 00:37:35;;;;;;;5.20;4.72;;;;;;;18.71;65.77;100271.81;674460;29;129703;-63
2021/08/06 00:37:59;;;;;;;6.00;5.03;;;;;;;18.70;65.77;100272.91;678580;29;36857;-63
2021/08/06 00:38:20;;;;;;;5.25;4.85;;;;;;;18.71;65.79;100269.94;680046;29;969;-62
2021/08/06 00:38:44;;;;;;;5.15;4.75;;;;;;;18.71;65.72;100271.81;679624;29;62314;-63
2021/08/06 00:39:06;;;;;;;5.40;5.00;;;;;;;18.72;65.86;100270.75;680120;29;15096;-63
2021/08/06 00:39:32;;;;;;;5.28;4.88;;;;;;;18.72;65.65;100271.56;675098;29;128962;-63
2021/08/06 00:39:55;;;;;;;5.25;4.90;;;;;;;18.74;65.77;100271.34;676893;29;46755;-63
2021/08/06 00:40:18;;;;;;;5.72;5.32;;;;;;;18.74;65.56;100274.06;671579;29;66313;-62
2021/08/06 00:40:40;;;;;;;5.50;5.10;;;;;;;18.73;65.59;100265.03;671125;29;70254;-63
2021/08/06 00:41:05;;;;;;;5.45;5.05;;;;;;;18.73;65.80;100270.50;669926;29;106032;-62
2021/08/06 00:41:28;;;;;;;5.17;4.77;;;;;;;18.73;65.75;100269.69;674285;29;43965;-63
2021/08/06 00:41:55;;;;;;;5.50;5.00;;;;;;;18.73;65.70;100272.44;677408;29;61387;-63
2021/08/06 00:42:19;;;;;;;5.75;5.20;;;;;;;18.70;65.71;100267.44;674067;29;70353;-63
2021/08/06 00:42:42;;;;;;;5.60;5.10;;;;;;;18.71;65.80;100271.81;671243;29;60421;-63
2021/08/06 00:43:08;;;;;;;6.35;5.03;;;;;;;18.72;65.87;100270.75;670611;29;117484;-63
2021/08/06 00:43:30;;;;;;;6.63;5.00;;;;;;;18.70;65.76;100257.31;676997;29;981;-63
2021/08/06 00:43:54;;;;;;;5.10;4.70;;;;;;;18.71;65.86;100264.47;673025;29;48254;-63
2021/08/06 00:44:21;;;;;;;5.40;5.00;;;;;;;18.72;65.99;100276.22;672824;29;117498;-63
2021/08/06 00:44:43;;;;;;;5.63;5.13;;;;;;;18.72;65.81;100271.56;676100;29;39050;-63
2021/08/06 00:45:07;;;;;;;5.28;4.88;;;;;;;18.72;65.95;100263.38;676930;29;46423;-63
2021/08/06 00:45:29;;;;;;;5.22;4.80;;;;;;;18.72;65.84;100266.09;679150;29;57078;-63
2021/08/06 00:45:53;;;;;;;5.32;4.82;;;;;;;18.72;65.73;100265.28;679098;28;92362;-63
2021/08/06 00:46:21;;;;;;;5.43;4.90;;;;;;;18.73;65.90;100272.44;677446;29;136189;-62
2021/08/06 00:46:44;;;;;;;5.88;5.32;;;;;;;18.72;65.82;100266.09;677131;29;87265;-62
2021/08/06 00:47:07;;;;;;;5.22;4.82;;;;;;;18.72;65.78;100268.03;675263;29;69429;-63
2021/08/06 00:47:35;;;;;;;5.13;4.72;;;;;;;18.71;65.92;100269.94;676009;29;122090;-63
2021/08/06 00:47:58;;;;;;;5.57;5.10;;;;;;;18.73;65.86;100275.16;673322;29;111816;-63
2021/08/06 00:48:19;;;;;;;5.30;4.90;;;;;;;18.73;65.89;100266.97;676225;29;30261;-63
2021/08/06 00:48:40;;;;;;;5.82;5.22;;;;;;;18.72;65.88;100266.09;675477;29;1267;-62
2021/08/06 00:49:06;;;;;;;5.65;5.00;;;;;;;18.73;65.92;100267.78;676128;29;77379;-63
2021/08/06 00:49:32;;;;;;;5.70;4.90;;;;;;;18.73;66.09;100269.69;670516;29;126614;-63
2021/08/06 00:49:53;;;;;;;5.40;4.90;;;;;;;18.73;65.78;100273.25;672755;29;15973;-63
2021/08/06 00:50:16;;;;;;;6.45;5.20;;;;;;;18.73;66.12;100273.25;674147;29;46355;-65
2021/08/06 00:50:38;;;;;;;6.28;5.10;;;;;;;18.72;66.01;100271.56;675851;29;23500;-63
2021/08/06 00:51:01;;;;;;;6.00;5.32;;;;;;;18.72;65.91;100268.84;671312;29;93133;-62
2021/08/06 00:51:23;;;;;;;5.85;5.35;;;;;;;18.72;65.83;100271.56;673709;29;58239;-63
2021/08/06 00:51:50;;;;;;;6.00;5.40;;;;;;;18.71;66.18;100264.47;674715;29;139782;-62
2021/08/06 00:52:14;;;;;;;5.93;5.32;;;;;;;18.72;66.01;100268.84;677440;29;48664;-62
2021/08/06 00:52:38;;;;;;;5.35;4.90;;;;;;;18.72;65.97;100262.56;677504;29;100966;-62
2021/08/06 00:53:00;;;;;;;5.65;5.15;;;;;;;18.72;65.99;100265.28;682360;28;31231;-62
2021/08/06 00:53:27;;;;;;;5.60;5.10;;;;;;;18.72;66.08;100262.56;679277;28;138266;-62
2021/08/06 00:53:52;;;;;;;5.55;5.07;;;;;;;18.72;65.95;100265.28;682627;28;65867;-62
2021/08/06 00:54:18;;;;;;;5.68;5.18;;;;;;;18.72;66.09;100265.28;677773;28;136468;-62
2021/08/06 00:54:54;;;;;;;5.32;4.93;;;;;;;18.70;66.00;100262.78;675727;29;137578;-63
2021/08/06 00:55:16;;;;;;;5.78;5.28;;;;;;;18.73;66.01;100261.47;677931;29;22410;-63
2021/08/06 00:55:43;;;;;;;5.78;5.18;;;;;;;18.72;65.89;100257.91;674569;29;137959;-63
2021/08/06 00:56:12;;;;;;;5.40;4.90;;;;;;;18.72;65.96;100260.63;674209;29;138374;-62
2021/08/06 00:56:35;;;;;;;5.72;5.22;;;;;;;18.73;65.94;100261.47;678541;29;41891;-63
2021/08/06 00:56:59;;;;;;;6.05;5.30;;;;;;;18.72;65.96;100257.91;675223;29;113601;-61
2021/08/06 00:57:22;;;;;;;7.47;5.28;;;;;;;18.73;65.97;100256.84;676723;29;8025;-63
2021/08/06 00:57:53;;;;;;;5.20;4.80;;;;;;;18.73;65.93;100262.31;672646;29;138187;-62
2021/08/06 00:58:17;;;;;;;5.53;5.13;;;;;;;18.72;65.88;100259.81;676412;28;116380;-62
2021/08/06 00:58:40;;;;;;;5.95;5.45;;;;;;;18.71;65.92;100259.00;677271;29;69552;-62
2021/08/06 00:59:06;;;;;;;5.75;5.25;;;;;;;18.72;65.82;100265.28;677995;29;37783;-63
2021/08/06 00:59:28;;;;;;;5.40;5.00;;;;;;;18.71;65.86;100256.25;682125;29;5092;-63
2021/08/06 00:59:50;;;;;;;5.68;5.20;;;;;;;18.71;65.91;100259.00;679332;29;69487;-63
2021/08/06 01:00:15;;;;;;;5.97;5.40;;;;;;;18.71;65.71;100255.41;673568;29;88242;-63
2021/08/06 01:00:37;;;;;;;5.65;5.15;;;;;;;18.70;65.91;100253.75;670484;29;35503;-63
2021/08/06 01:00:59;;;;;;;5.93;5.10;;;;;;;18.71;65.84;100259.00;670976;29;37457;-63
2021/08/06 01:01:30;;;;;;;5.22;4.82;;;;;;;18.70;65.89;100262.78;666008;29;123570;-63
2021/08/06 01:02:00;;;;;;;5.15;4.75;;;;;;;18.71;65.79;100264.47;669897;29;99748;-63
2021/08/06 01:02:27;;;;;;;5.07;4.78;;;;;;;18.69;65.95;100260.31;672709;29;99269;-63
2021/08/06 01:02:53;;;;;;;5.43;5.03;;;;;;;18.67;65.77;100257.81;673381;29;113623;-63
2021/08/06 01:03:21;;;;;;;5.57;5.07;;;;;;;18.67;66.03;100263.28;674293;29;152917;-63
2021/08/06 01:03:55;;;;;;;5.22;4.82;;;;;;;18.66;66.20;100261.59;674905;29;138063;-62
2021/08/06 01:04:23;;;;;;;5.50;5.00;;;;;;;18.64;66.04;100258.28;676353;29;137737;-62
2021/08/06 01:04:51;;;;;;;5.40;5.00;;;;;;;18.65;66.00;100264.59;674978;29;137849;-63
2021/08/06 01:05:17;;;;;;;5.50;5.10;;;;;;;18.63;66.04;100253.88;672660;29;137346;-63
2021/08/06 01:05:43;;;;;;;5.32;4.93;;;;;;;18.63;66.18;100258.53;674665;29;115876;-63
2021/08/06 01:06:07;;;;;;;5.10;4.70;;;;;;;18.62;66.20;100260.44;673913;29;84267;-63
2021/08/06 01:06:38;;;;;;;5.20;4.80;;;;;;;18.62;66.21;100257.72;672391;29;136177;-63
2021/08/06 01:07:03;;;;;;;5.60;5.10;;;;;;;18.61;66.30;100250.56;673050;29;127113;-63
2021/08/06 01:07:29;;;;;;;5.57;5.07;;;;;;;18.60;66.17;100259.84;674371;29;116061;-63
2021/08/06 01:08:03;;;;;;;5.20;4.80;;;;;;;18.62;66.24;100257.72;677018;29;90909;-63
2021/08/06 01:08:30;;;;;;;5.13;4.75;;;;;;;18.61;66.37;100260.69;677191;28;138715;-62
2021/08/06 01:08:56;;;;;;;5.47;5.07;;;;;;;18.60;66.37;100253.53;675064;29;136375;-63
2021/08/06 01:09:21;;;;;;;5.45;5.00;;;;;;;18.61;66.48;100258.78;673741;29;85172;-63
2021/08/06 01:09:51;;;;;;;5.97;5.47;;;;;;;18.59;66.50;100255.47;675039;29;81405;-63
2021/08/06 01:10:24;;;;;;;5.50;5.00;;;;;;;18.60;66.48;100259.84;674588;29;137427;-63
2021/08/06 01:10:50;;;;;;;5.55;5.15;;;;;;;18.60;66.50;100256.28;674943;29;161734;-63
2021/08/06 01:11:16;;;;;;;5.20;4.80;;;;;;;18.58;66.44;100256.53;676616;28;122777;-62
2021/08/06 01:11:41;;;;;;;5.40;4.90;;;;;;;18.59;66.50;100260.06;679027;28;115331;-63
2021/08/06 01:12:07;;;;;;;5.32;4.93;;;;;;;18.59;66.50;100257.34;683518;28;7080;-63
2021/08/06 01:12:41;;;;;;;6.18;5.15;;;;;;;18.58;66.62;100253.78;677318;29;116940;-63
2021/08/06 01:13:07;;;;;;;5.80;5.22;;;;;;;18.59;66.61;100258.19;678443;29;60506;-64
2021/08/06 01:13:31;;;;;;;5.68;5.10;;;;;;;18.59;66.65;100255.47;675470;29;136779;-62
2021/08/06 01:13:56;;;;;;;5.35;4.95;;;;;;;18.59;66.55;100258.19;677633;29;135932;-63
2021/08/06 01:14:24;;;;;;;5.40;5.00;;;;;;;18.59;66.63;100255.47;675682;29;134862;-63
2021/08/06 01:14:49;;;;;;;5.47;4.97;;;;;;;18.61;66.66;100253.31;675489;29;127610;-63
2021/08/06 01:15:12;;;;;;;5.32;4.85;;;;;;;18.61;66.66;100255.22;671335;29;113566;-63
2021/08/06 01:15:35;;;;;;;6.28;4.90;;;;;;;18.61;66.61;100247.00;677812;29;45357;-63
2021/08/06 01:16:03;;;;;;;5.50;5.00;;;;;;;18.62;66.43;100248.66;673353;29;92285;-63
2021/08/06 01:16:27;;;;;;;6.00;4.93;;;;;;;18.63;66.64;100253.88;672641;29;159793;-63
2021/08/06 01:16:49;;;;;;;5.10;4.60;;;;;;;18.63;66.51;100250.31;675250;29;92361;-63
2021/08/06 01:17:22;;;;;;;5.30;4.80;;;;;;;18.65;66.42;100250.91;676779;28;138207;-62
2021/08/06 01:17:46;;;;;;;5.43;5.00;;;;;;;18.64;66.47;100247.34;676061;29;113594;-63
2021/08/06 01:18:12;;;;;;;5.28;4.88;;;;;;;18.64;66.43;100250.09;678637;29;114906;-63
2021/08/06 01:18:36;;;;;;;4.95;4.65;;;;;;;18.64;66.52;100252.00;678638;28;116509;-62
2021/08/06 01:19:07;;;;;;;5.70;5.28;;;;;;;18.63;66.38;100248.41;681228;28;113642;-63
2021/08/06 01:19:41;;;;;;;5.28;4.78;;;;;;;18.64;66.47;100246.53;679017;28;103246;-63
2021/08/06 01:20:07;;;;;;;5.80;5.20;;;;;;;18.64;66.42;100247.34;678562;28;124796;-63
2021/08/06 01:20:33;;;;;;;5.53;5.03;;;;;;;18.66;66.69;100249.84;679886;28;115915;-63
2021/08/06 01:20:57;;;;;;;5.22;4.88;;;;;;;18.65;66.57;100243.56;678793;29;61827;-62
2021/08/06 01:21:19;;;;;;;5.72;5.20;;;;;;;18.66;66.42;100247.09;679118;28;56538;-63
2021/08/06 01:21:42;;;;;;;6.60;5.18;;;;;;;18.64;66.47;100247.34;679559;29;46293;-62
2021/08/06 01:22:15;;;;;;;5.47;4.97;;;;;;;18.65;66.53;100248.16;670475;29;162748;-62
2021/08/06 01:22:49;;;;;;;5.40;4.90;;;;;;;18.64;66.47;100255.56;677573;29;58997;-62
2021/08/06 01:23:27;;;;;;;5.65;4.90;;;;;;;18.63;66.53;100245.69;677385;28;127153;-63
2021/08/06 01:23:50;;;;;;;5.60;5.10;;;;;;;18.62;66.49;100244.03;677564;28;152335;-63
2021/08/06 01:24:15;;;;;;;5.50;4.88;;;;;;;18.63;66.50;100245.69;677550;29;69627;-63
2021/08/06 01:24:43;;;;;;;5.32;4.82;;;;;;;18.63;66.42;100253.88;676633;29;93194;-63
2021/08/06 01:25:08;;;;;;;5.80;5.30;;;;;;;18.63;66.53;100256.63;673102;29;115029;-63
2021/08/06 01:25:54;;;;;;;5.70;5.18;;;;;;;18.62;66.49;100244.03;673138;29;123355;-63
2021/08/06 01:26:28;;;;;;;5.85;5.35;;;;;;;18.62;66.39;100249.50;676312;29;115586;-62
2021/08/06 01:26:55;;;;;;;5.63;5.10;;;;;;;18.62;66.64;100251.38;678582;28;122995;-63
2021/08/06 01:27:17;;;;;;;5.65;5.13;;;;;;;18.62;66.74;100249.50;683575;28;38249;-63
2021/08/06 01:27:41;;;;;;;5.90;5.30;;;;;;;18.62;66.52;100246.78;680266;28;66991;-63
2021/08/06 01:28:04;;;;;;;5.70;5.10;;;;;;;18.62;66.60;100252.25;677311;29;82029;-63
2021/08/06 01:28:30;;;;;;;5.18;4.75;;;;;;;18.62;66.60;100249.50;676871;29;91848;-63
2021/08/06 01:28:57;;;;;;;5.25;4.70;;;;;;;18.61;66.57;100245.09;676831;28;60794;-63
2021/08/06 01:29:20;;;;;;;6.40;4.95;;;;;;;18.62;66.51;100251.38;680000;28;92846;-63
2021/08/06 01:29:45;;;;;;;5.43;5.00;;;;;;;18.61;66.40;100245.09;684180;28;69322;-63
2021/08/06 01:30:09;;;;;;;5.43;4.93;;;;;;;18.62;66.66;100254.97;684216;28;43489;-63
2021/08/06 01:30:33;;;;;;;5.10;4.70;;;;;;;18.63;66.49;100253.06;681395;28;144076;-63
2021/08/06 01:30:55;;;;;;;5.18;4.78;;;;;;;18.62;66.50;100246.78;685283;28;35261;-63
2021/08/06 01:31:23;;;;;;;5.40;5.00;;;;;;;18.61;66.50;100245.09;682497;28;54239;-63
2021/08/06 01:31:49;;;;;;;5.43;5.03;;;;;;;18.61;66.48;100256.03;679104;28;136413;-61
2021/08/06 01:32:16;;;;;;;5.47;5.07;;;;;;;18.60;66.52;100239.88;682010;28;131676;-63
2021/08/06 01:32:40;;;;;;;5.32;4.93;;;;;;;18.60;66.70;100245.34;681989;28;69431;-60
2021/08/06 01:33:02;;;;;;;5.45;4.93;;;;;;;18.59;66.65;100244.53;682351;28;58243;-61
2021/08/06 01:33:25;;;;;;;5.70;5.10;;;;;;;18.57;66.71;100246.66;684905;28;23386;-64
2021/08/06 01:33:47;;;;;;;5.28;4.88;;;;;;;18.57;66.54;100246.66;681696;28;90741;-61
2021/08/06 01:34:16;;;;;;;5.68;5.18;;;;;;;18.55;66.69;100243.34;675120;29;137989;-63
2021/08/06 01:34:38;;;;;;;5.40;4.90;;;;;;;18.54;66.65;100247.97;677619;29;44550;-63
2021/08/06 01:35:00;;;;;;;5.38;4.88;;;;;;;18.56;66.46;100242.25;679253;29;21521;-62
2021/08/06 01:35:21;;;;;;;5.60;5.10;;;;;;;18.55;66.48;100243.34;675296;29;47798;-62
2021/08/06 01:35:43;;;;;;;5.53;5.05;;;;;;;18.57;66.59;100243.09;678070;29;44356;-61
2021/08/06 01:36:05;;;;;;;5.47;5.00;;;;;;;18.55;66.55;100243.34;679290;29;44344;-61
2021/08/06 01:36:29;;;;;;;5.55;5.15;;;;;;;18.54;66.51;100247.97;678574;29;67489;-63
2021/08/06 01:36:52;;;;;;;5.25;4.75;;;;;;;18.54;66.69;100247.13;677707;29;88396;-62
2021/08/06 01:37:25;;;;;;;5.22;4.82;;;;;;;18.52;66.62;100236.44;675079;29;137569;-63
2021/08/06 01:37:49;;;;;;;5.10;4.70;;;;;;;18.52;66.80;100239.16;681695;29;15007;-62
2021/08/06 01:38:15;;;;;;;5.40;5.00;;;;;;;18.52;66.65;100235.59;677825;29;64243;-63
2021/08/06 01:38:37;;;;;;;5.25;4.85;;;;;;;18.52;66.82;100239.16;681960;28;15079;-63
2021/08/06 01:38:58;;;;;;;5.40;5.00;;;;;;;18.50;66.72;100244.06;680920;29;39321;-64
2021/08/06 01:39:25;;;;;;;5.43;5.03;;;;;;;18.50;66.78;100240.50;679041;28;160909;-63
2021/08/06 01:39:47;;;;;;;5.80;5.20;;;;;;;18.51;66.92;100242.13;680938;28;46373;-63
2021/08/06 01:40:09;;;;;;;5.38;4.95;;;;;;;18.50;66.62;100243.22;679146;28;36212;-61
2021/08/06 01:40:41;;;;;;;5.55;5.05;;;;;;;18.50;66.92;100241.31;675410;29;60394;-60
2021/08/06 01:41:16;;;;;;;7.05;5.15;;;;;;;18.50;67.18;100245.97;673920;29;24413;-61
2021/08/06 01:41:45;;;;;;;5.28;4.88;;;;;;;18.50;66.73;100245.97;673362;29;121540;-62
2021/08/06 01:42:14;;;;;;;5.65;5.15;;;;;;;18.50;66.78;100246.78;673492;29;135183;-61
2021/08/06 01:42:46;;;;;;;5.15;4.75;;;;;;;18.51;67.06;100245.72;676461;29;61340;-63
2021/08/06 01:43:13;;;;;;;5.50;5.00;;;;;;;18.52;66.85;100241.91;675680;29;120299;-63
2021/08/06 01:43:41;;;;;;;5.65;5.10;;;;;;;18.53;66.86;100235.38;674898;29;135741;-62
2021/08/06 01:44:05;;;;;;;5.68;5.18;;;;;;;18.54;66.71;100244.38;673657;29;126496;-63
2021/08/06 01:44:34;;;;;;;5.60;5.10;;;;;;;18.55;66.94;100246.06;674827;29;136304;-64
2021/08/06 01:44:56;;;;;;;5.28;4.88;;;;;;;18.55;66.85;100246.06;671957;29;138202;-62
2021/08/06 01:45:25;;;;;;;5.38;4.97;;;;;;;18.55;66.77;100243.34;673096;29;137911;-63
2021/08/06 01:45:51;;;;;;;5.63;5.18;;;;;;;18.55;66.87;100244.16;675037;29;90432;-62
2021/08/06 01:46:20;;;;;;;6.97;5.20;;;;;;;18.57;66.91;100243.91;677719;29;134735;-63
2021/08/06 01:46:45;;;;;;;5.38;4.88;;;;;;;18.58;66.75;100242.03;680873;28;127257;-63
2021/08/06 01:47:10;;;;;;;5.45;4.95;;;;;;;18.60;66.67;100243.44;676668;28;135874;-61
2021/08/06 01:47:39;;;;;;;6.07;5.28;;;;;;;18.61;66.72;100242.38;676592;28;137713;-63
2021/08/06 01:48:10;;;;;;;5.57;5.07;;;;;;;18.61;66.77;100247.84;673806;29;135886;-61
2021/08/06 01:48:36;;;;;;;5.50;5.00;;;;;;;18.60;66.55;100240.69;677730;29;29494;-61
2021/08/06 01:49:11;;;;;;;5.10;4.80;;;;;;;18.61;66.62;100244.28;676111;29;60751;-61
2021/08/06 01:49:40;;;;;;;5.20;4.80;;;;;;;18.60;66.71;100237.13;673759;29;133183;-63
2021/08/06 01:50:07;;;;;;;5.78;5.20;;;;;;;18.60;66.66;100243.44;674092;29;140235;-62
2021/08/06 01:50:30;;;;;;;5.68;5.18;;;;;;;18.60;66.71;100239.88;677599;28;117693;-60
2021/08/06 01:50:56;;;;;;;5.15;4.75;;;;;;;18.58;66.79;100237.38;679091;29;61211;-62
2021/08/06 01:51:19;;;;;;;5.60;5.10;;;;;;;18.58;66.80;100237.38;677678;28;92281;-63
2021/08/06 01:51:43;;;;;;;5.18;4.78;;;;;;;18.59;66.62;100238.19;681368;28;69454;-63
2021/08/06 01:52:08;;;;;;;5.45;5.05;;;;;;;18.58;66.75;100234.66;682853;28;91356;-62
2021/08/06 01:52:35;;;;;;;5.43;5.00;;;;;;;18.58;66.73;100242.03;683592;28;38409;-63
2021/08/06 01:53:02;;;;;;;6.22;5.20;;;;;;;18.58;66.81;100239.28;678753;29;58832;-62
2021/08/06 01:53:30;;;;;;;5.15;4.75;;;;;;;18.55;66.87;100238.69;679249;28;123166;-63
2021/08/06 01:53:59;;;;;;;5.28;4.78;;;;;;;18.56;66.75;100245.00;681575;28;60831;-61
2021/08/06 01:54:28;;;;;;;5.85;5.30;;;;;;;18.56;66.86;100239.53;680519;29;58255;-63
2021/08/06 01:54:54;;;;;;;5.55;5.13;;;;;;;18.57;66.94;100238.44;681093;28;124264;-64
2021/08/06 01:55:22;;;;;;;5.95;5.35;;;;;;;18.57;67.07;100241.19;682094;28;137265;-62